sensor_id;sensor_type;location;lat;lon;timestamp;pressure;altitude;pressure_sealevel;temperature;humidity
24280;BME280;12395;42.808;23.408;2023-07-20T00:00:12;94607.66;;;20.04;93.28
24280;BME280;12395;42.808;23.408;2023-07-20T00:02:39;94604.16;;;19.98;93.43
24280;BME280;12395;42.808;23.408;2023-07-20T00:05:05;94590.47;;;19.94;94.00
24280;BME280;12395;42.808;23.408;2023-07-20T00:07:30;94617.34;;;19.99;93.60
24280;BME280;12395;42.808;23.408;2023-07-20T00:09:56;94617.34;;;19.99;93.76
24280;BME280;12395;42.808;23.408;2023-07-20T00:12:21;94614.09;;;19.97;96.46
24280;BME280;12395;42.808;23.408;2023-07-20T00:14:46;94611.97;;;19.94;95.83
24280;BME280;12395;42.808;23.408;2023-07-20T00:17:12;94617.34;;;19.89;94.75
24280;BME280;12395;42.808;23.408;2023-07-20T00:19:37;94623.28;;;19.96;95.83
24280;BME280;12395;42.808;23.408;2023-07-20T00:22:03;94613.59;;;19.85;95.01
24280;BME280;12395;42.808;23.408;2023-07-20T00:24:30;94630.81;;;19.89;96.02
24280;BME280;12395;42.808;23.408;2023-07-20T00:26:55;94609.84;;;19.86;98.11
24280;BME280;12395;42.808;23.408;2023-07-20T00:29:21;94609.56;;;19.83;98.48
24280;BME280;12395;42.808;23.408;2023-07-20T00:31:46;94612.25;;;19.83;97.35
24280;BME280;12395;42.808;23.408;2023-07-20T00:34:12;94611.16;;;19.89;96.71
24280;BME280;12395;42.808;23.408;2023-07-20T00:36:37;94610.13;;;19.80;94.22
24280;BME280;12395;42.808;23.408;2023-07-20T00:39:03;94595.88;;;19.79;95.39
24280;BME280;12395;42.808;23.408;2023-07-20T00:41:28;94609.88;;;19.71;97.01
24280;BME280;12395;42.808;23.408;2023-07-20T00:43:55;94600.75;;;19.52;98.72
24280;BME280;12395;42.808;23.408;2023-07-20T00:46:22;94609.06;;;19.56;99.83
24280;BME280;12395;42.808;23.408;2023-07-20T00:48:48;94600.22;;;19.50;98.31
24280;BME280;12395;42.808;23.408;2023-07-20T00:51:14;94593.50;;;19.48;98.08
24280;BME280;12395;42.808;23.408;2023-07-20T00:53:40;94610.97;;;19.45;99.44
24280;BME280;12395;42.808;23.408;2023-07-20T00:56:05;94603.13;;;19.34;100.00
24280;BME280;12395;42.808;23.408;2023-07-20T00:58:32;94599.09;;;19.31;100.00
24280;BME280;12395;42.808;23.408;2023-07-20T01:00:57;94602.09;;;19.35;100.00
24280;BME280;12395;42.808;23.408;2023-07-20T01:03:23;94590.50;;;19.29;99.45
24280;BME280;12395;42.808;23.408;2023-07-20T01:08:24;94588.91;;;19.38;98.37
24280;BME280;12395;42.808;23.408;2023-07-20T01:10:58;94602.06;;;19.55;97.49
24280;BME280;12395;42.808;23.408;2023-07-20T01:13:25;94599.09;;;19.61;96.77
24280;BME280;12395;42.808;23.408;2023-07-20T01:15:57;94593.75;;;19.66;97.06
24280;BME280;12395;42.808;23.408;2023-07-20T01:18:24;94590.25;;;19.66;98.00
24280;BME280;12395;42.808;23.408;2023-07-20T01:20:50;94587.31;;;19.67;96.81
24280;BME280;12395;42.808;23.408;2023-07-20T01:23:42;94586.47;;;19.72;95.90
24280;BME280;12395;42.808;23.408;2023-07-20T01:30:16;94587.84;;;19.64;95.74
24280;BME280;12395;42.808;23.408;2023-07-20T01:32:15;94586.22;;;19.53;96.13
24280;BME280;12395;42.808;23.408;2023-07-20T01:34:42;94594.81;;;19.40;98.06
24280;BME280;12395;42.808;23.408;2023-07-20T01:37:10;94597.25;;;19.37;97.78
24280;BME280;12395;42.808;23.408;2023-07-20T01:39:36;94592.66;;;19.32;97.16
24280;BME280;12395;42.808;23.408;2023-07-20T01:42:02;94586.72;;;19.25;97.69
24280;BME280;12395;42.808;23.408;2023-07-20T01:44:28;94593.19;;;19.29;96.64
24280;BME280;12395;42.808;23.408;2023-07-20T01:46:54;94598.00;;;19.27;98.04
24280;BME280;12395;42.808;23.408;2023-07-20T01:49:19;94586.22;;;19.28;96.83
24280;BME280;12395;42.808;23.408;2023-07-20T01:51:44;94578.16;;;19.28;96.91
24280;BME280;12395;42.808;23.408;2023-07-20T01:54:10;94581.88;;;19.12;98.46
24280;BME280;12395;42.808;23.408;2023-07-20T01:56:35;94580.28;;;19.06;98.22
24280;BME280;12395;42.808;23.408;2023-07-20T01:59:01;94575.72;;;19.06;98.64
24280;BME280;12395;42.808;23.408;2023-07-20T02:01:26;94583.50;;;19.03;98.97
24280;BME280;12395;42.808;23.408;2023-07-20T02:03:53;94572.50;;;18.94;99.39
24280;BME280;12395;42.808;23.408;2023-07-20T02:06:20;94572.19;;;18.91;98.94
24280;BME280;12395;42.808;23.408;2023-07-20T02:08:46;94571.13;;;18.87;99.00
24280;BME280;12395;42.808;23.408;2023-07-20T02:11:11;94575.44;;;18.88;99.70
24280;BME280;12395;42.808;23.408;2023-07-20T02:13:37;94570.88;;;18.83;99.62
24280;BME280;12395;42.808;23.408;2023-07-20T02:16:02;94578.38;;;18.81;98.66
24280;BME280;12395;42.808;23.408;2023-07-20T02:18:28;94574.63;;;18.77;98.64
24280;BME280;12395;42.808;23.408;2023-07-20T02:20:53;94575.16;;;18.84;98.61
24280;BME280;12395;42.808;23.408;2023-07-20T02:23:19;94578.09;;;18.78;98.82
24280;BME280;12395;42.808;23.408;2023-07-20T02:25:44;94572.19;;;18.71;99.35
24280;BME280;12395;42.808;23.408;2023-07-20T02:28:13;94572.19;;;18.71;99.23
24280;BME280;12395;42.808;23.408;2023-07-20T02:30:38;94567.91;;;18.75;100.00
24280;BME280;12395;42.808;23.408;2023-07-20T02:33:07;94580.25;;;18.71;100.00
24280;BME280;12395;42.808;23.408;2023-07-20T02:35:32;94564.09;;;18.61;100.00
24280;BME280;12395;42.808;23.408;2023-07-20T02:37:58;94564.09;;;18.56;100.00
24280;BME280;12395;42.808;23.408;2023-07-20T02:40:23;94571.31;;;18.50;100.00
24280;BME280;12395;42.808;23.408;2023-07-20T02:42:49;94567.81;;;18.44;100.00
24280;BME280;12395;42.808;23.408;2023-07-20T02:45:14;94563.75;;;18.42;100.00
24280;BME280;12395;42.808;23.408;2023-07-20T02:47:40;94551.09;;;18.27;100.00
24280;BME280;12395;42.808;23.408;2023-07-20T02:50:07;94542.50;;;18.20;100.00
24280;BME280;12395;42.808;23.408;2023-07-20T02:52:33;94531.47;;;18.12;100.00
24280;BME280;12395;42.808;23.408;2023-07-20T02:54:58;94558.38;;;18.32;100.00
24280;BME280;12395;42.808;23.408;2023-07-20T02:57:23;94567.22;;;18.32;100.00
24280;BME280;12395;42.808;23.408;2023-07-20T02:59:49;94566.63;;;18.20;100.00
24280;BME280;12395;42.808;23.408;2023-07-20T03:02:14;94570.94;;;18.21;100.00
24280;BME280;12395;42.808;23.408;2023-07-20T03:04:40;94570.91;;;18.16;100.00
24280;BME280;12395;42.808;23.408;2023-07-20T03:07:05;94575.41;;;18.06;100.00
24280;BME280;12395;42.808;23.408;2023-07-20T03:09:32;94573.53;;;18.06;100.00
24280;BME280;12395;42.808;23.408;2023-07-20T03:11:57;94572.22;;;18.09;100.00
24280;BME280;12395;42.808;23.408;2023-07-20T03:14:23;94562.78;;;18.01;100.00
24280;BME280;12395;42.808;23.408;2023-07-20T03:16:49;94566.59;;;18.10;100.00
24280;BME280;12395;42.808;23.408;2023-07-20T03:19:14;94556.34;;;17.97;100.00
24280;BME280;12395;42.808;23.408;2023-07-20T03:21:40;94572.22;;;18.14;100.00
24280;BME280;12395;42.808;23.408;2023-07-20T03:24:07;94563.13;;;18.15;100.00
24280;BME280;12395;42.808;23.408;2023-07-20T03:26:34;94566.09;;;18.23;100.00
24280;BME280;12395;42.808;23.408;2023-07-20T03:29:00;94565.56;;;18.21;100.00
24280;BME280;12395;42.808;23.408;2023-07-20T03:31:25;94563.13;;;18.15;100.00
24280;BME280;12395;42.808;23.408;2023-07-20T03:33:50;94563.69;;;18.22;100.00
24280;BME280;12395;42.808;23.408;2023-07-20T03:36:16;94560.75;;;18.23;100.00
24280;BME280;12395;42.808;23.408;2023-07-20T03:38:41;94563.72;;;18.32;100.00
24280;BME280;12395;42.808;23.408;2023-07-20T03:41:07;94557.03;;;18.34;100.00
24280;BME280;12395;42.808;23.408;2023-07-20T03:43:32;94546.81;;;18.31;100.00
24280;BME280;12395;42.808;23.408;2023-07-20T03:45:57;94570.50;;;18.44;100.00
24280;BME280;12395;42.808;23.408;2023-07-20T03:48:23;94568.38;;;18.46;100.00
24280;BME280;12395;42.808;23.408;2023-07-20T03:50:52;94574.84;;;18.56;100.00
24280;BME280;12395;42.808;23.408;2023-07-20T03:53:18;94579.94;;;18.62;100.00
24280;BME280;12395;42.808;23.408;2023-07-20T03:55:48;94586.69;;;18.75;100.00
24280;BME280;12395;42.808;23.408;2023-07-20T03:58:14;94578.09;;;18.78;100.00
24280;BME280;12395;42.808;23.408;2023-07-20T04:00:44;94586.72;;;18.90;100.00
24280;BME280;12395;42.808;23.408;2023-07-20T04:03:09;94598.28;;;18.90;100.00
24280;BME280;12395;42.808;23.408;2023-07-20T04:05:35;94602.84;;;19.05;100.00
24280;BME280;12395;42.808;23.408;2023-07-20T04:08:00;94586.97;;;19.03;100.00
24280;BME280;12395;42.808;23.408;2023-07-20T04:10:26;94581.63;;;19.03;100.00
24280;BME280;12395;42.808;23.408;2023-07-20T04:12:51;94587.28;;;19.22;100.00
24280;BME280;12395;42.808;23.408;2023-07-20T04:15:17;94585.16;;;19.34;100.00
24280;BME280;12395;42.808;23.408;2023-07-20T04:17:42;94586.50;;;19.47;100.00
24280;BME280;12395;42.808;23.408;2023-07-20T04:20:08;94589.44;;;19.65;100.00
24280;BME280;12395;42.808;23.408;2023-07-20T04:22:34;94582.41;;;19.89;100.00
24280;BME280;12395;42.808;23.408;2023-07-20T04:25:00;94592.25;;;20.34;100.00
24280;BME280;12395;42.808;23.408;2023-07-20T04:27:25;94574.22;;;20.89;96.09
24280;BME280;12395;42.808;23.408;2023-07-20T04:29:51;94581.41;;;21.42;93.37
24280;BME280;12395;42.808;23.408;2023-07-20T04:32:17;94569.06;;;21.65;92.26
24280;BME280;12395;42.808;23.408;2023-07-20T04:34:42;94579.53;;;21.71;92.15
24280;BME280;12395;42.808;23.408;2023-07-20T04:37:07;94575.91;;;21.52;91.29
24280;BME280;12395;42.808;23.408;2023-07-20T04:39:33;94574.13;;;21.42;91.40
24280;BME280;12395;42.808;23.408;2023-07-20T04:41:58;94570.09;;;21.40;93.26
24280;BME280;12395;42.808;23.408;2023-07-20T04:44:24;94571.44;;;21.42;94.90
24280;BME280;12395;42.808;23.408;2023-07-20T04:46:49;94575.16;;;21.46;94.94
24280;BME280;12395;42.808;23.408;2023-07-20T04:49:15;94574.06;;;21.47;92.58
24280;BME280;12395;42.808;23.408;2023-07-20T04:51:40;94564.66;;;21.45;92.25
24280;BME280;12395;42.808;23.408;2023-07-20T04:54:06;94582.09;;;21.58;91.56
24280;BME280;12395;42.808;23.408;2023-07-20T04:56:31;94579.31;;;21.63;91.31
24280;BME280;12395;42.808;23.408;2023-07-20T04:58:56;94566.88;;;21.67;90.40
24280;BME280;12395;42.808;23.408;2023-07-20T05:01:22;94577.00;;;21.85;92.64
24280;BME280;12395;42.808;23.408;2023-07-20T05:03:48;94574.78;;;21.92;92.13
24280;BME280;12395;42.808;23.408;2023-07-20T05:06:14;94579.72;;;22.08;92.92
24280;BME280;12395;42.808;23.408;2023-07-20T05:08:39;94580.47;;;22.14;93.87
24280;BME280;12395;42.808;23.408;2023-07-20T05:11:05;94569.66;;;22.14;92.19
24280;BME280;12395;42.808;23.408;2023-07-20T05:13:30;94596.94;;;22.36;91.85
24280;BME280;12395;42.808;23.408;2023-07-20T05:15:56;94595.22;;;22.45;89.29
24280;BME280;12395;42.808;23.408;2023-07-20T05:18:22;94600.28;;;22.52;88.26
24280;BME280;12395;42.808;23.408;2023-07-20T05:20:48;94605.75;;;22.70;85.25
24280;BME280;12395;42.808;23.408;2023-07-20T05:23:19;94597.84;;;22.74;85.99
24280;BME280;12395;42.808;23.408;2023-07-20T05:25:54;94587.06;;;22.74;86.82
24280;BME280;12395;42.808;23.408;2023-07-20T05:28:20;94581.66;;;22.74;86.74
24280;BME280;12395;42.808;23.408;2023-07-20T05:30:45;94578.28;;;22.82;85.25
24280;BME280;12395;42.808;23.408;2023-07-20T05:33:10;94577.66;;;22.90;85.99
24280;BME280;12395;42.808;23.408;2023-07-20T05:35:36;94598.81;;;23.01;84.88
24280;BME280;12395;42.808;23.408;2023-07-20T05:38:03;94593.16;;;23.03;84.15
24280;BME280;12395;42.808;23.408;2023-07-20T05:40:30;94596.28;;;23.10;84.97
24280;BME280;12395;42.808;23.408;2023-07-20T05:42:55;94602.13;;;23.17;83.12
24280;BME280;12395;42.808;23.408;2023-07-20T05:45:22;94615.63;;;23.17;83.09
24280;BME280;12395;42.808;23.408;2023-07-20T05:47:47;94606.28;;;23.10;83.52
24280;BME280;12395;42.808;23.408;2023-07-20T05:50:14;94633.19;;;23.20;81.51
24280;BME280;12395;42.808;23.408;2023-07-20T05:52:40;94624.06;;;23.16;82.46
24280;BME280;12395;42.808;23.408;2023-07-20T05:55:06;94607.09;;;23.10;83.07
24280;BME280;12395;42.808;23.408;2023-07-20T05:57:32;94596.50;;;23.14;83.47
24280;BME280;12395;42.808;23.408;2023-07-20T05:59:57;94617.63;;;23.30;82.74
24280;BME280;12395;42.808;23.408;2023-07-20T06:02:22;94599.19;;;23.32;82.48
24280;BME280;12395;42.808;23.408;2023-07-20T06:04:48;94604.31;;;23.52;81.85
24280;BME280;12395;42.808;23.408;2023-07-20T06:07:13;94598.91;;;23.52;81.86
24280;BME280;12395;42.808;23.408;2023-07-20T06:09:39;94619.59;;;23.62;82.08
24280;BME280;12395;42.808;23.408;2023-07-20T06:12:05;94619.50;;;23.67;82.10
24280;BME280;12395;42.808;23.408;2023-07-20T06:14:31;94598.25;;;23.60;81.64
24280;BME280;12395;42.808;23.408;2023-07-20T06:16:56;94601.47;;;23.76;80.76
24280;BME280;12395;42.808;23.408;2023-07-20T06:19:21;94601.47;;;23.76;78.53
24280;BME280;12395;42.808;23.408;2023-07-20T06:21:47;94584.16;;;23.77;78.23
24280;BME280;12395;42.808;23.408;2023-07-20T06:24:15;94600.06;;;23.97;78.32
24280;BME280;12395;42.808;23.408;2023-07-20T06:26:40;94606.97;;;24.03;77.83
24280;BME280;12395;42.808;23.408;2023-07-20T06:29:05;94595.06;;;24.04;77.09
24280;BME280;12395;42.808;23.408;2023-07-20T06:31:37;94591.28;;;24.05;77.33
24280;BME280;12395;42.808;23.408;2023-07-20T06:34:03;94588.38;;;24.15;78.67
24280;BME280;12395;42.808;23.408;2023-07-20T06:36:29;94584.84;;;24.15;78.46
24280;BME280;12395;42.808;23.408;2023-07-20T06:38:55;94583.38;;;24.22;77.19
24280;BME280;12395;42.808;23.408;2023-07-20T06:41:20;94592.91;;;24.33;75.53
24280;BME280;12395;42.808;23.408;2023-07-20T06:43:46;94588.50;;;24.37;72.90
24280;BME280;12395;42.808;23.408;2023-07-20T06:46:12;94587.66;;;24.64;73.64
24280;BME280;12395;42.808;23.408;2023-07-20T06:48:37;94592.66;;;25.11;73.25
24280;BME280;12395;42.808;23.408;2023-07-20T06:51:03;94593.66;;;25.51;69.97
24280;BME280;12395;42.808;23.408;2023-07-20T06:53:29;94593.75;;;25.90;69.25
24280;BME280;12395;42.808;23.408;2023-07-20T06:55:57;94601.50;;;26.28;68.44
24280;BME280;12395;42.808;23.408;2023-07-20T06:58:23;94611.53;;;26.49;67.62
24280;BME280;12395;42.808;23.408;2023-07-20T07:00:48;94620.69;;;26.62;67.95
24280;BME280;12395;42.808;23.408;2023-07-20T07:03:14;94634.09;;;26.67;67.59
24280;BME280;12395;42.808;23.408;2023-07-20T07:05:39;94629.53;;;26.76;68.27
24280;BME280;12395;42.808;23.408;2023-07-20T07:08:05;94625.97;;;26.67;67.67
24280;BME280;12395;42.808;23.408;2023-07-20T07:10:31;94624.00;;;26.59;67.05
24280;BME280;12395;42.808;23.408;2023-07-20T07:12:57;94646.53;;;26.82;67.71
24280;BME280;12395;42.808;23.408;2023-07-20T07:15:22;94644.00;;;26.63;68.38
24280;BME280;12395;42.808;23.408;2023-07-20T07:17:47;94653.47;;;26.65;65.62
24280;BME280;12395;42.808;23.408;2023-07-20T07:20:13;94661.16;;;26.72;65.57
24280;BME280;12395;42.808;23.408;2023-07-20T07:22:38;94652.19;;;26.71;65.94
24280;BME280;12395;42.808;23.408;2023-07-20T07:25:04;94658.69;;;26.53;65.91
24280;BME280;12395;42.808;23.408;2023-07-20T07:27:30;94642.75;;;26.30;66.61
24280;BME280;12395;42.808;23.408;2023-07-20T07:29:55;94654.44;;;26.08;66.03
24280;BME280;12395;42.808;23.408;2023-07-20T07:32:20;94668.53;;;25.96;68.55
24280;BME280;12395;42.808;23.408;2023-07-20T07:34:46;94649.41;;;25.57;67.85
24280;BME280;12395;42.808;23.408;2023-07-20T07:37:13;94648.41;;;25.75;68.73
24280;BME280;12395;42.808;23.408;2023-07-20T07:39:39;94642.38;;;25.56;66.80
24280;BME280;12395;42.808;23.408;2023-07-20T07:42:05;94635.03;;;25.57;67.92
24280;BME280;12395;42.808;23.408;2023-07-20T07:44:30;94610.88;;;25.47;66.58
24280;BME280;12395;42.808;23.408;2023-07-20T07:46:56;94638.19;;;25.72;67.38
24280;BME280;12395;42.808;23.408;2023-07-20T07:49:21;94593.97;;;25.50;67.17
24280;BME280;12395;42.808;23.408;2023-07-20T07:51:47;94605.91;;;25.71;68.25
24280;BME280;12395;42.808;23.408;2023-07-20T07:54:12;94608.47;;;25.89;65.26
24280;BME280;12395;42.808;23.408;2023-07-20T07:56:38;94592.06;;;26.03;64.30
24280;BME280;12395;42.808;23.408;2023-07-20T07:59:03;94581.00;;;26.13;65.77
24280;BME280;12395;42.808;23.408;2023-07-20T08:01:29;94602.84;;;26.39;64.31
24280;BME280;12395;42.808;23.408;2023-07-20T08:03:55;94610.09;;;26.60;63.17
24280;BME280;12395;42.808;23.408;2023-07-20T08:06:21;94627.22;;;26.61;63.17
24280;BME280;12395;42.808;23.408;2023-07-20T08:08:47;94641.44;;;26.58;62.90
24280;BME280;12395;42.808;23.408;2023-07-20T08:11:12;94666.53;;;26.55;62.29
24280;BME280;12395;42.808;23.408;2023-07-20T08:13:38;94665.13;;;26.35;61.17
24280;BME280;12395;42.808;23.408;2023-07-20T08:16:03;94669.75;;;26.35;63.41
24280;BME280;12395;42.808;23.408;2023-07-20T08:18:29;94672.34;;;26.40;61.58
24280;BME280;12395;42.808;23.408;2023-07-20T08:20:56;94651.00;;;26.47;63.03
24280;BME280;12395;42.808;23.408;2023-07-20T08:23:21;94652.78;;;26.51;62.21
24280;BME280;12395;42.808;23.408;2023-07-20T08:25:47;94656.22;;;26.43;63.16
24280;BME280;12395;42.808;23.408;2023-07-20T08:28:14;94652.69;;;26.34;62.34
24280;BME280;12395;42.808;23.408;2023-07-20T08:30:44;94642.16;;;26.41;65.38
24280;BME280;12395;42.808;23.408;2023-07-20T08:33:12;94613.34;;;26.32;68.10
24280;BME280;12395;42.808;23.408;2023-07-20T08:35:38;94633.13;;;26.63;66.62
24280;BME280;12395;42.808;23.408;2023-07-20T08:38:03;94627.91;;;26.66;66.31
24280;BME280;12395;42.808;23.408;2023-07-20T08:40:33;94629.53;;;26.76;63.63
24280;BME280;12395;42.808;23.408;2023-07-20T08:43:00;94628.94;;;26.88;66.41
24280;BME280;12395;42.808;23.408;2023-07-20T08:45:28;94642.69;;;26.83;63.70
24280;BME280;12395;42.808;23.408;2023-07-20T08:47:56;94634.19;;;26.75;60.07
24280;BME280;12395;42.808;23.408;2023-07-20T08:50:28;94646.84;;;26.89;60.50
24280;BME280;12395;42.808;23.408;2023-07-20T08:52:56;94632.13;;;26.81;56.17
24280;BME280;12395;42.808;23.408;2023-07-20T08:55:24;94640.78;;;26.83;55.18
24280;BME280;12395;42.808;23.408;2023-07-20T08:57:53;94633.22;;;26.80;54.03
24280;BME280;12395;42.808;23.408;2023-07-20T09:00:20;94638.38;;;26.82;54.37
24280;BME280;12395;42.808;23.408;2023-07-20T09:02:47;94631.97;;;26.86;51.50
24280;BME280;12395;42.808;23.408;2023-07-20T09:05:13;94605.59;;;26.87;51.69
24280;BME280;12395;42.808;23.408;2023-07-20T09:07:40;94598.09;;;26.92;51.18
24280;BME280;12395;42.808;23.408;2023-07-20T09:10:06;94624.66;;;27.04;49.82
24280;BME280;12395;42.808;23.408;2023-07-20T09:12:36;94619.91;;;27.18;51.43
24280;BME280;12395;42.808;23.408;2023-07-20T09:15:02;94612.25;;;27.28;50.79
24280;BME280;12395;42.808;23.408;2023-07-20T09:17:28;94615.63;;;27.42;48.94
24280;BME280;12395;42.808;23.408;2023-07-20T09:19:53;94608.09;;;27.48;47.32
24280;BME280;12395;42.808;23.408;2023-07-20T09:22:19;94583.31;;;27.49;48.54
24280;BME280;12395;42.808;23.408;2023-07-20T09:24:44;94590.66;;;27.75;51.42
24280;BME280;12395;42.808;23.408;2023-07-20T09:27:10;94581.66;;;27.83;48.13
24280;BME280;12395;42.808;23.408;2023-07-20T09:29:49;94572.19;;;27.89;49.02
24280;BME280;12395;42.808;23.408;2023-07-20T09:32:18;94594.28;;;28.13;49.46
24280;BME280;12395;42.808;23.408;2023-07-20T09:34:44;94592.22;;;28.10;48.50
24280;BME280;12395;42.808;23.408;2023-07-20T09:37:10;94595.09;;;28.13;47.83
24280;BME280;12395;42.808;23.408;2023-07-20T09:39:43;94592.50;;;28.25;48.52
24280;BME280;12395;42.808;23.408;2023-07-20T09:42:11;94592.22;;;28.56;47.66
24280;BME280;12395;42.808;23.408;2023-07-20T09:44:38;94604.56;;;28.91;48.09
24280;BME280;12395;42.808;23.408;2023-07-20T09:47:04;94597.72;;;29.15;49.12
24280;BME280;12395;42.808;23.408;2023-07-20T09:49:29;94589.81;;;29.22;44.54
24280;BME280;12395;42.808;23.408;2023-07-20T09:51:57;94597.03;;;29.67;46.10
24280;BME280;12395;42.808;23.408;2023-07-20T09:54:23;94591.41;;;30.05;45.13
24280;BME280;12395;42.808;23.408;2023-07-20T09:56:51;94567.25;;;30.40;43.40
24280;BME280;12395;42.808;23.408;2023-07-20T09:59:17;94570.91;;;30.56;42.64
24280;BME280;12395;42.808;23.408;2023-07-20T10:01:43;94569.47;;;30.71;41.72
24280;BME280;12395;42.808;23.408;2023-07-20T10:04:11;94555.31;;;30.57;41.58
24280;BME280;12395;42.808;23.408;2023-07-20T10:06:41;94565.69;;;30.63;41.33
24280;BME280;12395;42.808;23.408;2023-07-20T10:09:07;94546.88;;;30.62;40.29
24280;BME280;12395;42.808;23.408;2023-07-20T10:11:36;94567.28;;;30.88;41.02
24280;BME280;12395;42.808;23.408;2023-07-20T10:14:04;94571.03;;;31.08;40.66
24280;BME280;12395;42.808;23.408;2023-07-20T10:16:38;94568.09;;;31.01;40.72
24280;BME280;12395;42.808;23.408;2023-07-20T10:19:15;94577.19;;;31.17;42.39
24280;BME280;12395;42.808;23.408;2023-07-20T10:21:47;94580.59;;;31.38;42.61
24280;BME280;12395;42.808;23.408;2023-07-20T10:24:14;94569.97;;;31.49;41.46
24280;BME280;12395;42.808;23.408;2023-07-20T10:26:40;94572.25;;;31.47;40.21
24280;BME280;12395;42.808;23.408;2023-07-20T10:29:07;94577.66;;;31.43;41.17
24280;BME280;12395;42.808;23.408;2023-07-20T10:31:33;94580.75;;;31.17;40.36
24280;BME280;12395;42.808;23.408;2023-07-20T10:34:00;94577.81;;;30.98;39.99
24280;BME280;12395;42.808;23.408;2023-07-20T10:36:27;94568.09;;;31.13;39.78
24280;BME280;12395;42.808;23.408;2023-07-20T10:38:56;94553.91;;;31.23;41.21
24280;BME280;12395;42.808;23.408;2023-07-20T10:41:31;94562.78;;;31.44;39.94
24280;BME280;12395;42.808;23.408;2023-07-20T10:44:11;94564.72;;;31.56;39.77
24280;BME280;12395;42.808;23.408;2023-07-20T10:49:07;94559.53;;;31.66;41.11
24280;BME280;12395;42.808;23.408;2023-07-20T10:51:45;94550.06;;;31.64;40.70
24280;BME280;12395;42.808;23.408;2023-07-20T10:56:49;94529.34;;;31.51;40.71
24280;BME280;12395;42.808;23.408;2023-07-20T10:59:18;94537.53;;;31.63;41.58
24280;BME280;12395;42.808;23.408;2023-07-20T11:01:47;94527.16;;;31.56;40.81
24280;BME280;12395;42.808;23.408;2023-07-20T11:04:16;94516.69;;;31.46;40.57
24280;BME280;12395;42.808;23.408;2023-07-20T11:06:44;94510.78;;;31.32;41.17
24280;BME280;12395;42.808;23.408;2023-07-20T11:09:14;94515.53;;;31.35;41.01
24280;BME280;12395;42.808;23.408;2023-07-20T11:11:49;94514.38;;;31.08;41.01
24280;BME280;12395;42.808;23.408;2023-07-20T11:16:48;94519.31;;;30.91;42.99
24280;BME280;12395;42.808;23.408;2023-07-20T11:21:50;94506.44;;;30.79;41.63
24280;BME280;12395;42.808;23.408;2023-07-20T11:24:17;94513.84;;;31.03;42.60
24280;BME280;12395;42.808;23.408;2023-07-20T11:26:44;94512.03;;;31.22;41.00
24280;BME280;12395;42.808;23.408;2023-07-20T11:29:09;94511.22;;;30.94;40.76
24280;BME280;12395;42.808;23.408;2023-07-20T11:31:36;94498.31;;;30.83;40.91
24280;BME280;12395;42.808;23.408;2023-07-20T11:34:02;94508.34;;;30.79;42.11
24280;BME280;12395;42.808;23.408;2023-07-20T11:36:27;94502.78;;;30.75;43.20
24280;BME280;12395;42.808;23.408;2023-07-20T11:38:53;94498.34;;;30.71;41.78
24280;BME280;12395;42.808;23.408;2023-07-20T11:41:19;94489.00;;;30.60;42.54
24280;BME280;12395;42.808;23.408;2023-07-20T11:43:45;94496.28;;;30.68;44.98
24280;BME280;12395;42.808;23.408;2023-07-20T11:46:10;94496.06;;;30.48;42.41
24280;BME280;12395;42.808;23.408;2023-07-20T11:48:36;94489.78;;;30.36;40.86
24280;BME280;12395;42.808;23.408;2023-07-20T11:51:01;94487.63;;;30.41;42.79
24280;BME280;12395;42.808;23.408;2023-07-20T11:53:27;94488.88;;;30.44;42.33
24280;BME280;12395;42.808;23.408;2023-07-20T11:55:53;94489.47;;;30.50;41.92
24280;BME280;12395;42.808;23.408;2023-07-20T11:58:19;94469.13;;;30.26;42.01
24280;BME280;12395;42.808;23.408;2023-07-20T12:00:44;94485.00;;;30.33;41.04
24280;BME280;12395;42.808;23.408;2023-07-20T12:03:12;94472.31;;;30.28;41.87
24280;BME280;12395;42.808;23.408;2023-07-20T12:05:40;94447.72;;;30.16;39.96
24280;BME280;12395;42.808;23.408;2023-07-20T12:08:06;94470.31;;;30.37;41.33
24280;BME280;12395;42.808;23.408;2023-07-20T12:10:31;94474.66;;;30.38;39.52
24280;BME280;12395;42.808;23.408;2023-07-20T12:13:03;94471.91;;;30.38;39.12
24280;BME280;12395;42.808;23.408;2023-07-20T12:15:29;94461.31;;;30.49;39.62
24280;BME280;12395;42.808;23.408;2023-07-20T12:17:59;94467.00;;;30.56;39.02
24280;BME280;12395;42.808;23.408;2023-07-20T12:22:56;94458.47;;;30.58;39.01
24280;BME280;12395;42.808;23.408;2023-07-20T12:25:22;94462.78;;;30.59;40.77
24280;BME280;12395;42.808;23.408;2023-07-20T12:27:48;94459.59;;;30.69;38.27
24280;BME280;12395;42.808;23.408;2023-07-20T12:30:13;94453.19;;;30.77;38.80
24280;BME280;12395;42.808;23.408;2023-07-20T12:32:39;94455.69;;;30.70;37.40
24280;BME280;12395;42.808;23.408;2023-07-20T12:35:05;94454.13;;;30.69;39.00
24280;BME280;12395;42.808;23.408;2023-07-20T12:37:31;94445.66;;;30.74;39.27
24280;BME280;12395;42.808;23.408;2023-07-20T12:39:56;94434.03;;;30.77;39.62
24280;BME280;12395;42.808;23.408;2023-07-20T12:42:22;94435.97;;;30.88;39.29
24280;BME280;12395;42.808;23.408;2023-07-20T12:44:49;94436.28;;;30.99;37.89
24280;BME280;12395;42.808;23.408;2023-07-20T12:47:18;94432.31;;;30.96;38.34
24280;BME280;12395;42.808;23.408;2023-07-20T12:49:44;94430.63;;;30.92;39.60
24280;BME280;12395;42.808;23.408;2023-07-20T12:52:12;94436.72;;;31.01;38.38
24280;BME280;12395;42.808;23.408;2023-07-20T12:54:37;94433.91;;;30.85;38.48
24280;BME280;12395;42.808;23.408;2023-07-20T12:57:03;94417.34;;;31.06;39.14
24280;BME280;12395;42.808;23.408;2023-07-20T12:59:29;94432.34;;;31.24;38.80
24280;BME280;12395;42.808;23.408;2023-07-20T13:01:54;94427.25;;;31.38;40.49